createdAt,value
2018-06-20T00:01:36.391Z,18.07
2018-06-20T00:04:39.659Z,18.08
2018-06-20T00:07:42.750Z,18.14
2018-06-20T00:10:45.829Z,18.14
2018-06-20T00:13:48.848Z,18.07
2018-06-20T00:16:52.014Z,18.02
2018-06-20T00:19:55.250Z,17.94
2018-06-20T00:23:01.993Z,17.93
2018-06-20T00:26:06.020Z,17.91
2018-06-20T00:29:14.541Z,17.90
2018-06-20T00:32:18.600Z,17.86
2018-06-20T00:35:21.596Z,17.87
2018-06-20T00:38:25.701Z,17.87
2018-06-20T00:41:28.825Z,17.88
2018-06-20T00:44:31.813Z,17.94
2018-06-20T00:47:34.791Z,17.99
2018-06-20T00:50:41.942Z,18.04
2018-06-20T00:53:46.002Z,18.10
2018-06-20T00:56:49.072Z,18.15
2018-06-20T00:59:54.075Z,18.12
2018-06-20T01:02:57.101Z,18.09
2018-06-20T01:06:01.225Z,18.05
2018-06-20T01:09:10.433Z,17.99
2018-06-20T01:12:13.544Z,17.94
2018-06-20T01:15:16.545Z,17.86
2018-06-20T01:18:19.589Z,17.84
2018-06-20T01:21:22.657Z,17.81
2018-06-20T01:24:25.931Z,17.78
2018-06-20T01:27:28.977Z,17.75
2018-06-20T01:30:32.028Z,17.69
2018-06-20T01:33:35.114Z,17.43
2018-06-20T01:36:45.351Z,17.37
2018-06-20T01:39:48.409Z,17.31
2018-06-20T01:42:51.486Z,17.27
2018-06-20T01:45:55.558Z,17.28
2018-06-20T01:48:58.561Z,17.31
2018-06-20T01:52:03.628Z,17.28
2018-06-20T01:55:07.699Z,17.14
2018-06-20T01:58:11.747Z,17.12
2018-06-20T02:01:14.765Z,17.16
2018-06-20T02:04:18.898Z,17.09
2018-06-20T02:07:24.010Z,17.07
2018-06-20T02:10:32.460Z,17.00
2018-06-20T02:13:35.479Z,17.04
2018-06-20T02:16:42.298Z,17.09
2018-06-20T02:19:46.315Z,17.15
2018-06-20T02:22:49.272Z,17.18
2018-06-20T02:25:52.378Z,17.13
2018-06-20T02:28:55.384Z,17.14
2018-06-20T02:31:58.461Z,17.10
2018-06-20T02:35:01.537Z,17.13
2018-06-20T02:38:04.685Z,17.23
2018-06-20T02:41:07.917Z,17.26
2018-06-20T02:44:11.035Z,17.10
2018-06-20T02:47:14.278Z,17.14
2018-06-20T02:50:17.448Z,17.19
2018-06-20T02:53:20.666Z,17.26
2018-06-20T02:56:24.701Z,17.33
2018-06-20T02:59:27.755Z,17.38
2018-06-20T03:02:31.142Z,17.19
2018-06-20T03:05:34.187Z,17.07
2018-06-20T03:08:37.346Z,17.13
2018-06-20T03:11:41.322Z,17.18
2018-06-20T03:14:44.483Z,17.26
2018-06-20T03:17:47.804Z,17.21
2018-06-20T03:20:51.013Z,16.90
2018-06-20T03:23:54.018Z,16.97
2018-06-20T03:26:57.034Z,17.08
2018-06-20T03:30:00.123Z,17.19
2018-06-20T03:33:03.246Z,17.28
2018-06-20T03:36:06.374Z,17.10
2018-06-20T03:39:09.948Z,17.20
2018-06-20T03:42:12.980Z,17.30
2018-06-20T03:45:16.065Z,17.40
2018-06-20T03:48:19.084Z,17.53
2018-06-20T03:51:22.149Z,17.66
2018-06-20T03:54:28.585Z,17.61
2018-06-20T03:57:31.752Z,17.49
2018-06-20T04:00:34.852Z,17.64
2018-06-20T04:03:38.337Z,17.77
2018-06-20T04:06:41.363Z,17.89
2018-06-20T04:09:44.377Z,18.04
2018-06-20T04:12:47.556Z,18.15
2018-06-20T04:15:50.592Z,18.25
2018-06-20T04:18:53.705Z,18.37
2018-06-20T04:21:56.669Z,18.46
2018-06-20T04:24:59.893Z,18.58
2018-06-20T04:28:03.035Z,18.70
2018-06-20T04:31:07.504Z,18.84
2018-06-20T04:34:10.626Z,19.04
2018-06-20T04:37:13.852Z,19.28
2018-06-20T04:40:16.807Z,19.52
2018-06-20T04:43:20.059Z,19.63
2018-06-20T04:46:23.132Z,19.88
2018-06-20T04:49:26.184Z,20.09
2018-06-20T04:52:29.237Z,20.29
2018-06-20T04:55:32.559Z,20.55
2018-06-20T04:58:35.677Z,20.27
2018-06-20T05:01:39.698Z,20.19
2018-06-20T05:04:42.833Z,20.28
2018-06-20T05:07:46.003Z,20.58
2018-06-20T05:10:49.102Z,21.31
2018-06-20T05:13:52.314Z,21.44
2018-06-20T05:16:55.374Z,21.20
2018-06-20T05:19:58.405Z,21.65
2018-06-20T05:23:01.367Z,21.89
2018-06-20T05:26:04.422Z,22.51
2018-06-20T05:29:07.718Z,24.89
2018-06-20T05:32:10.814Z,24.94
2018-06-20T05:35:13.923Z,23.94
2018-06-20T05:38:17.590Z,25.17
2018-06-20T05:41:20.856Z,27.35
2018-06-20T05:44:24.005Z,29.17
2018-06-20T05:47:27.213Z,30.01
2018-06-20T05:50:30.331Z,29.46
2018-06-20T05:53:36.371Z,31.69
2018-06-20T05:56:39.452Z,32.92
2018-06-20T05:59:43.137Z,33.55
2018-06-20T06:02:46.160Z,34.10
2018-06-20T06:06:07.908Z,33.81
2018-06-20T06:09:11.379Z,34.22
2018-06-20T06:12:14.660Z,33.75
2018-06-20T06:15:17.791Z,33.54
2018-06-20T06:18:21.784Z,33.31
2018-06-20T06:21:26.214Z,32.30
2018-06-20T06:24:29.393Z,34.13
2018-06-20T06:27:32.475Z,33.82
2018-06-20T06:30:35.705Z,32.35
2018-06-20T06:33:38.724Z,32.75
2018-06-20T06:36:41.959Z,34.42
2018-06-20T06:39:44.983Z,35.64
2018-06-20T06:42:48.160Z,35.23
2018-06-20T06:45:51.250Z,34.69
2018-06-20T06:48:54.537Z,34.72
2018-06-20T06:51:57.636Z,34.56
2018-06-20T06:55:00.758Z,33.99
2018-06-20T06:58:03.906Z,33.55
2018-06-20T07:01:06.984Z,32.80
2018-06-20T07:04:10.045Z,32.71
2018-06-20T07:07:13.277Z,33.38
2018-06-20T07:10:16.336Z,33.67
2018-06-20T07:13:20.235Z,33.32
2018-06-20T07:16:23.405Z,28.29
2018-06-20T07:19:26.544Z,26.94
2018-06-20T07:22:29.818Z,26.40
2018-06-20T07:25:32.876Z,25.96
2018-06-20T07:28:35.891Z,26.50
2018-06-20T07:31:39.190Z,27.55
2018-06-20T07:34:42.335Z,27.22
2018-06-20T07:37:45.411Z,26.70
2018-06-20T07:40:48.496Z,27.12
2018-06-20T07:43:51.563Z,27.22
2018-06-20T07:46:54.733Z,30.20
2018-06-20T07:49:57.717Z,32.45
2018-06-20T07:53:01.076Z,31.85
2018-06-20T07:56:04.502Z,32.45
2018-06-20T07:59:12.090Z,31.04
2018-06-20T08:02:38.271Z,31.19
2018-06-20T08:05:47.069Z,32.14
2018-06-20T08:08:55.717Z,33.32
2018-06-20T08:12:04.391Z,33.74
2018-06-20T08:15:11.890Z,32.83
2018-06-20T08:18:20.579Z,32.76
2018-06-20T08:21:23.690Z,32.80
2018-06-20T08:24:26.883Z,31.97
2018-06-20T08:27:31.292Z,31.39
2018-06-20T08:30:34.264Z,28.18
2018-06-20T08:33:37.502Z,28.05
2018-06-20T08:36:40.500Z,28.35
2018-06-20T08:39:43.614Z,27.53
2018-06-20T08:42:46.726Z,28.00
2018-06-20T08:45:49.872Z,27.92
2018-06-20T08:48:53.083Z,26.90
2018-06-20T08:51:56.269Z,26.21
2018-06-20T08:54:59.340Z,26.04
2018-06-20T08:58:02.440Z,25.59
2018-06-20T09:01:05.452Z,26.37
2018-06-20T09:04:14.091Z,26.03
2018-06-20T09:07:22.863Z,26.31
2018-06-20T09:10:31.511Z,27.69
2018-06-20T09:13:40.112Z,28.27
2018-06-20T09:16:48.812Z,28.39
2018-06-20T09:19:53.398Z,28.63
2018-06-20T09:22:56.516Z,27.90
2018-06-20T09:25:59.595Z,27.23
2018-06-20T09:29:02.685Z,27.39
2018-06-20T09:32:06.065Z,27.75
2018-06-20T09:35:09.311Z,28.54
2018-06-20T09:38:12.421Z,27.60
2018-06-20T09:41:15.516Z,27.22
2018-06-20T09:44:18.539Z,27.58
2018-06-20T09:47:21.823Z,28.59
2018-06-20T09:50:30.561Z,29.52
2018-06-20T09:53:33.624Z,27.31
2018-06-20T09:56:36.780Z,27.22
2018-06-20T09:59:45.676Z,26.65
2018-06-20T10:02:54.489Z,27.38
2018-06-20T10:06:03.426Z,27.49
2018-06-20T10:09:12.178Z,28.31
2018-06-20T10:12:20.846Z,28.02
2018-06-20T10:15:23.951Z,27.17
2018-06-20T10:18:27.043Z,26.89
2018-06-20T10:21:30.223Z,27.20
2018-06-20T10:24:33.224Z,28.13
2018-06-20T10:27:36.225Z,29.32
2018-06-20T10:30:39.486Z,29.47
2018-06-20T10:33:42.551Z,29.23
2018-06-20T10:36:45.719Z,28.41
2018-06-20T10:39:48.927Z,28.27
2018-06-20T10:42:51.996Z,28.41
2018-06-20T10:46:00.951Z,28.18
2018-06-20T10:49:04.116Z,27.87
2018-06-20T10:52:07.209Z,27.77
2018-06-20T10:55:11.635Z,27.42
2018-06-20T10:58:20.448Z,27.54
2018-06-20T11:01:29.109Z,28.34
2018-06-20T11:04:38.017Z,28.64
2018-06-20T11:07:47.837Z,28.85
2018-06-20T11:10:56.876Z,29.81
2018-06-20T11:14:00.737Z,28.31
2018-06-20T11:17:03.811Z,28.24
2018-06-20T11:20:12.316Z,28.43
2018-06-20T11:23:15.680Z,27.66
2018-06-20T11:26:18.800Z,27.47
2018-06-20T11:29:22.745Z,28.16
2018-06-20T11:32:25.959Z,28.13
2018-06-20T11:35:29.060Z,28.63
2018-06-20T11:38:32.332Z,28.67
2018-06-20T11:41:35.552Z,28.96
2018-06-20T11:44:38.628Z,28.78
2018-06-20T11:47:43.995Z,28.55
2018-06-20T11:50:47.125Z,28.58
2018-06-20T11:53:50.368Z,29.09
2018-06-20T11:56:53.662Z,28.66
2018-06-20T12:00:02.365Z,29.10
2018-06-20T12:03:11.184Z,30.01
2018-06-20T12:06:20.153Z,30.46
2018-06-20T12:09:29.250Z,29.98
2018-06-20T12:12:38.069Z,29.46
2018-06-20T12:15:47.004Z,29.84
2018-06-20T12:18:55.893Z,29.46
2018-06-20T12:22:04.595Z,29.63
2018-06-20T12:25:13.494Z,29.31
2018-06-20T12:28:22.409Z,28.72
2018-06-20T12:31:31.209Z,28.83
2018-06-20T12:34:39.905Z,29.36
2018-06-20T12:37:48.821Z,30.03
2018-06-20T12:40:57.780Z,29.91
2018-06-20T12:44:06.739Z,29.66
2018-06-20T12:47:15.796Z,29.61
2018-06-20T12:50:25.122Z,29.18
2018-06-20T12:53:28.198Z,29.19
2018-06-20T12:56:32.122Z,29.08
2018-06-20T12:59:35.392Z,29.43
2018-06-20T13:02:38.534Z,28.62
2018-06-20T13:05:41.785Z,28.23
2018-06-20T13:08:45.038Z,28.66
2018-06-20T13:11:48.350Z,29.51
2018-06-20T13:14:51.670Z,30.81
2018-06-20T13:17:54.804Z,31.47
2018-06-20T13:20:57.969Z,31.74
2018-06-20T13:24:01.165Z,30.99
2018-06-20T13:27:04.755Z,30.12
2018-06-20T13:30:09.091Z,29.91
2018-06-20T13:33:17.821Z,29.92
2018-06-20T13:36:26.504Z,29.93
2018-06-20T13:39:35.414Z,30.28
2018-06-20T13:42:44.323Z,31.09
2018-06-20T13:45:53.883Z,31.24
2018-06-20T13:48:57.069Z,31.32
2018-06-20T13:52:00.159Z,31.54
2018-06-20T13:55:03.317Z,30.92
2018-06-20T13:58:11.141Z,30.76
2018-06-20T14:01:14.224Z,31.19
2018-06-20T14:04:17.535Z,31.30
2018-06-20T14:07:20.628Z,31.40
2018-06-20T14:10:23.698Z,31.35
2018-06-20T14:13:26.942Z,31.59
2018-06-20T14:16:30.213Z,30.84
2018-06-20T14:19:38.931Z,30.45
2018-06-20T14:22:42.212Z,30.97
2018-06-20T14:25:45.540Z,31.50
2018-06-20T14:28:48.724Z,31.25
2018-06-20T14:31:57.530Z,31.81
2018-06-20T14:35:06.249Z,33.14
2018-06-20T14:38:15.107Z,32.01
2018-06-20T14:41:21.893Z,31.58
2018-06-20T14:44:25.229Z,32.86
2018-06-20T14:47:28.394Z,32.03
2018-06-20T14:50:31.545Z,31.62
2018-06-20T14:53:34.874Z,31.82
2018-06-20T14:56:37.829Z,32.05
2018-06-20T14:59:41.153Z,32.37
2018-06-20T15:02:44.261Z,32.54
2018-06-20T15:05:47.397Z,31.72
2018-06-20T15:08:50.531Z,31.39
2018-06-20T15:11:53.829Z,31.07
2018-06-20T15:14:57.046Z,31.26
2018-06-20T15:18:00.248Z,32.77
2018-06-20T15:21:03.367Z,32.96
2018-06-20T15:24:06.472Z,31.89
2018-06-20T15:27:15.492Z,32.53
2018-06-20T15:30:24.420Z,31.76
2018-06-20T15:33:33.289Z,32.10
2018-06-20T15:36:42.025Z,33.34
2018-06-20T15:39:45.149Z,32.98
2018-06-20T15:42:48.395Z,31.72
2018-06-20T15:45:52.606Z,31.37
2018-06-20T15:48:55.903Z,31.73
2018-06-20T15:51:59.410Z,32.66
2018-06-20T15:55:02.621Z,32.61
2018-06-20T15:58:05.816Z,32.69
2018-06-20T16:01:08.865Z,32.17
2018-06-20T16:04:12.192Z,31.61
2018-06-20T16:07:15.333Z,31.73
2018-06-20T16:10:19.298Z,32.39
2018-06-20T16:13:22.499Z,33.56
2018-06-20T16:16:25.564Z,34.23
2018-06-20T16:19:34.361Z,34.16
2018-06-20T16:22:43.137Z,32.60
2018-06-20T16:25:51.951Z,32.77
2018-06-20T16:29:00.764Z,32.51
2018-06-20T16:32:04.014Z,32.43
2018-06-20T16:35:07.122Z,31.99
2018-06-20T16:38:10.397Z,32.28
2018-06-20T16:41:13.653Z,32.16
2018-06-20T16:44:17.345Z,32.21
2018-06-20T16:47:20.535Z,32.35
2018-06-20T16:50:23.782Z,32.24
2018-06-20T16:53:26.996Z,31.72
2018-06-20T16:56:30.235Z,32.42
2018-06-20T16:59:33.641Z,32.44
2018-06-20T17:02:40.261Z,32.44
2018-06-20T17:05:43.459Z,32.67
2018-06-20T17:08:46.709Z,33.72
2018-06-20T17:11:55.424Z,32.86
2018-06-20T17:15:04.408Z,32.85
2018-06-20T17:18:13.391Z,32.30
2018-06-20T17:21:22.161Z,32.74
2018-06-20T17:24:30.759Z,31.80
2018-06-20T17:27:34.063Z,32.44
2018-06-20T17:30:37.245Z,32.92
2018-06-20T17:33:40.268Z,32.15
2018-06-20T17:36:43.563Z,31.50
2018-06-20T17:39:46.828Z,31.80
2018-06-20T17:42:50.405Z,32.27
2018-06-20T17:45:53.501Z,31.89
2018-06-20T17:48:56.596Z,31.58
2018-06-20T17:52:02.701Z,31.29
2018-06-20T17:55:06.168Z,31.19
2018-06-20T17:58:09.469Z,31.15
2018-06-20T18:01:12.904Z,30.88
2018-06-20T18:04:21.527Z,30.89
2018-06-20T18:07:30.431Z,30.27
2018-06-20T18:10:38.971Z,30.18
2018-06-20T18:13:47.995Z,30.11
2018-06-20T18:16:57.746Z,29.75
2018-06-20T18:20:01.111Z,29.76
2018-06-20T18:23:04.421Z,29.85
2018-06-20T18:26:08.216Z,29.80
2018-06-20T18:29:11.363Z,29.77
2018-06-20T18:32:14.922Z,30.17
2018-06-20T18:35:18.368Z,30.35
2018-06-20T18:38:21.386Z,30.39
2018-06-20T18:41:24.554Z,30.35
2018-06-20T18:44:28.741Z,30.44
2018-06-20T18:47:37.668Z,30.36
2018-06-20T18:50:40.820Z,30.17
2018-06-20T18:53:44.041Z,29.81
2018-06-20T18:56:47.156Z,29.25
2018-06-20T18:59:55.881Z,28.64
2018-06-20T19:03:04.496Z,28.20
2018-06-20T19:06:13.310Z,27.74
2018-06-20T19:09:19.329Z,27.20
2018-06-20T19:12:22.389Z,26.76
2018-06-20T19:15:26.189Z,26.31
2018-06-20T19:18:29.365Z,25.82
2018-06-20T19:21:32.707Z,25.32
2018-06-20T19:24:35.831Z,24.93
2018-06-20T19:27:40.014Z,24.47
2018-06-20T19:30:43.764Z,24.00
2018-06-20T19:33:47.426Z,23.53
2018-06-20T19:36:51.711Z,23.11
2018-06-20T19:39:55.160Z,22.73
2018-06-20T19:42:58.217Z,22.39
2018-06-20T19:46:01.487Z,22.17
2018-06-20T19:49:04.720Z,21.95
2018-06-20T19:52:09.441Z,21.72
2018-06-20T19:55:13.924Z,21.56
2018-06-20T19:58:17.346Z,21.41
2018-06-20T20:01:20.559Z,21.25
2018-06-20T20:04:24.135Z,21.08
2018-06-20T20:07:27.345Z,20.92
2018-06-20T20:10:36.290Z,20.77
2018-06-20T20:13:39.477Z,20.51
2018-06-20T20:16:42.658Z,20.30
2018-06-20T20:19:45.689Z,20.29
2018-06-20T20:22:48.918Z,20.21
2018-06-20T20:25:52.022Z,19.99
2018-06-20T20:28:56.138Z,19.83
2018-06-20T20:31:59.278Z,19.74
2018-06-20T20:35:02.454Z,19.67
2018-06-20T20:38:05.587Z,19.59
2018-06-20T20:41:09.765Z,19.45
2018-06-20T20:44:12.949Z,19.21
2018-06-20T20:47:16.078Z,19.10
2018-06-20T20:50:19.321Z,19.06
2018-06-20T20:53:22.486Z,19.02
2018-06-20T20:56:25.728Z,18.96
2018-06-20T20:59:29.016Z,18.95
2018-06-20T21:02:32.230Z,19.00
2018-06-20T21:05:35.406Z,18.91
2018-06-20T21:08:39.705Z,18.85
2018-06-20T21:11:43.097Z,18.60
2018-06-20T21:14:46.034Z,18.44
2018-06-20T21:17:50.346Z,18.39
2018-06-20T21:20:53.479Z,18.44
2018-06-20T21:23:57.629Z,18.50
2018-06-20T21:27:01.805Z,18.60
2018-06-20T21:30:05.805Z,18.64
2018-06-20T21:33:08.908Z,18.69
2018-06-20T21:36:13.937Z,18.58
2018-06-20T21:39:17.069Z,18.45
2018-06-20T21:42:20.068Z,18.38
2018-06-20T21:45:24.194Z,18.27
2018-06-20T21:48:27.351Z,18.20
2018-06-20T21:51:30.792Z,18.09
2018-06-20T21:54:33.978Z,17.93
2018-06-20T21:57:37.173Z,17.78
2018-06-20T22:00:41.276Z,17.60
2018-06-20T22:03:44.374Z,17.32
2018-06-20T22:06:49.120Z,17.15
2018-06-20T22:09:52.232Z,17.04
2018-06-20T22:12:55.348Z,16.89
2018-06-20T22:15:59.421Z,16.83
2018-06-20T22:19:03.685Z,16.91
2018-06-20T22:22:06.887Z,17.00
2018-06-20T22:25:15.480Z,17.04
2018-06-20T22:28:24.790Z,17.07
2018-06-20T22:31:27.969Z,17.06
2018-06-20T22:34:31.233Z,17.07
2018-06-20T22:37:34.475Z,17.09
2018-06-20T22:40:39.658Z,17.08
2018-06-20T22:43:42.839Z,17.02
2018-06-20T22:46:46.017Z,17.01
2018-06-20T22:49:53.952Z,17.02
2018-06-20T22:52:58.470Z,17.02
2018-06-20T22:56:01.962Z,16.91
2018-06-20T22:59:06.321Z,16.83
2018-06-20T23:02:11.478Z,16.72
2018-06-20T23:05:15.650Z,16.68
2018-06-20T23:08:19.276Z,16.61
2018-06-20T23:11:22.753Z,16.67
2018-06-20T23:14:27.219Z,16.66
2018-06-20T23:17:30.436Z,16.69
2018-06-20T23:20:33.658Z,16.69
2018-06-20T23:23:36.836Z,16.70
2018-06-20T23:26:40.050Z,16.56
2018-06-20T23:29:43.248Z,16.55
2018-06-20T23:32:46.375Z,16.59
2018-06-20T23:35:49.668Z,16.56
2018-06-20T23:38:52.811Z,16.50
2018-06-20T23:41:56.057Z,16.46
2018-06-20T23:44:59.170Z,16.49
2018-06-20T23:48:02.326Z,16.44
2018-06-20T23:51:06.699Z,16.39
2018-06-20T23:54:09.874Z,16.36
2018-06-20T23:57:13.900Z,16.32
